Time;durP1;ratioP1;P1;durP2;ratioP2;P2;SDS_P1;SDS_P2;PMS_P1;PMS_P2;Temp;Humidity;BMP_temperature;BMP_pressure;BME280_temperature;BME280_humidity;BME280_pressure;Samples;Min_cycle;Max_cycle;Signal;HPM_P1;HPM_P2
2023/08/04 00:01:02;;;;;;;1.25;1.10;;;;;;;;;;5050364;28;20211;-71
2023/08/04 00:03:31;;;;;;;1.98;1.30;;;;;;;;;;5050662;28;20277;-71
2023/08/04 00:05:58;;;;;;;2.15;1.23;;;;;;;;;;5053013;28;20217;-71
2023/08/04 00:08:25;;;;;;;1.52;1.30;;;;;;;;;;5048991;28;20204;-71
2023/08/04 00:10:53;;;;;;;2.63;1.35;;;;;;;;;;5057200;28;20213;-71
2023/08/04 00:13:20;;;;;;;1.50;1.25;;;;;;;;;;5054724;28;20227;-70
2023/08/04 00:15:47;;;;;;;3.80;1.25;;;;;;;;;;5056956;28;20213;-71
2023/08/04 00:18:14;;;;;;;1.25;1.00;;;;;;;;;;5055474;28;20215;-72
2023/08/04 00:20:43;;;;;;;1.45;1.20;;;;;;;;;;5055594;28;20207;-71
2023/08/04 00:23:10;;;;;;;1.70;1.20;;;;;;;;;;5058236;28;20215;-71
2023/08/04 00:25:37;;;;;;;1.42;1.20;;;;;;;;;;5057994;28;20214;-72
2023/08/04 00:28:04;;;;;;;2.45;1.45;;;;;;;;;;5058981;28;20211;-71
2023/08/04 00:30:32;;;;;;;3.92;1.50;;;;;;;;;;5059579;28;20217;-71
2023/08/04 00:32:59;;;;;;;2.30;1.45;;;;;;;;;;5054071;28;20227;-71
2023/08/04 00:35:26;;;;;;;4.43;1.63;;;;;;;;;;5055578;28;20210;-71
2023/08/04 00:37:54;;;;;;;2.50;1.70;;;;;;;;;;5053586;28;20298;-71
2023/08/04 00:40:28;;;;;;;1.30;1.20;;;;;;;;;;5053676;28;20215;-70
2023/08/04 00:42:56;;;;;;;1.80;1.40;;;;;;;;;;5059665;28;20210;-71
2023/08/04 00:45:24;;;;;;;2.92;1.30;;;;;;;;;;5060100;28;20207;-71
2023/08/04 00:47:52;;;;;;;2.42;1.30;;;;;;;;;;5057630;28;20214;-71
2023/08/04 00:50:20;;;;;;;2.55;1.40;;;;;;;;;;5053743;28;20216;-71
2023/08/04 00:52:48;;;;;;;3.95;1.60;;;;;;;;;;5053492;28;20231;-71
2023/08/04 00:55:17;;;;;;;2.45;1.60;;;;;;;;;;5052630;28;20307;-70
2023/08/04 00:57:44;;;;;;;4.95;1.88;;;;;;;;;;5056934;28;20230;-70
2023/08/04 01:00:12;;;;;;;4.90;2.00;;;;;;;;;;5055596;28;20218;-72
2023/08/04 01:02:39;;;;;;;3.58;1.88;;;;;;;;;;5060925;28;20212;-70
2023/08/04 01:05:07;;;;;;;4.65;1.60;;;;;;;;;;5058597;28;20206;-71
2023/08/04 01:07:36;;;;;;;4.30;1.70;;;;;;;;;;5060919;28;20215;-70
2023/08/04 01:10:10;;;;;;;3.45;2.20;;;;;;;;;;5061319;28;20279;-68
2023/08/04 01:12:43;;;;;;;3.17;1.90;;;;;;;;;;5060013;28;20213;-71
2023/08/04 01:15:11;;;;;;;4.80;1.90;;;;;;;;;;5056746;28;20219;-70
2023/08/04 01:17:38;;;;;;;3.05;1.85;;;;;;;;;;5053142;28;20226;-70
2023/08/04 01:20:06;;;;;;;3.53;2.00;;;;;;;;;;5053280;28;20253;-71
2023/08/04 01:22:35;;;;;;;4.95;1.98;;;;;;;;;;5052814;28;20207;-72
2023/08/04 01:25:03;;;;;;;4.22;2.20;;;;;;;;;;5051797;28;20213;-70
2023/08/04 01:27:31;;;;;;;3.17;2.28;;;;;;;;;;5051454;28;20210;-71
2023/08/04 01:29:59;;;;;;;5.38;2.13;;;;;;;;;;5053016;28;20265;-70
2023/08/04 01:32:26;;;;;;;4.65;2.40;;;;;;;;;;5057122;28;20211;-71
2023/08/04 01:34:53;;;;;;;4.05;2.40;;;;;;;;;;5062686;28;20230;-70
2023/08/04 01:37:21;;;;;;;5.95;2.58;;;;;;;;;;5063113;28;20238;-72
2023/08/04 01:39:52;;;;;;;8.07;2.55;;;;;;;;;;5063277;28;20211;-71
2023/08/04 01:42:19;;;;;;;3.55;2.60;;;;;;;;;;5053143;28;20215;-64
2023/08/04 01:44:47;;;;;;;5.97;2.70;;;;;;;;;;5052595;28;20208;-64
2023/08/04 01:47:14;;;;;;;6.13;2.75;;;;;;;;;;5063291;28;20246;-65
2023/08/04 01:49:41;;;;;;;7.85;3.00;;;;;;;;;;5057678;28;20231;-64
2023/08/04 01:52:08;;;;;;;8.02;3.00;;;;;;;;;;5063865;28;20342;-65
2023/08/04 01:54:35;;;;;;;5.72;3.03;;;;;;;;;;5059132;28;20243;-64
2023/08/04 01:57:04;;;;;;;9.38;3.25;;;;;;;;;;5048272;28;20211;-65
2023/08/04 01:59:31;;;;;;;5.20;3.10;;;;;;;;;;5063353;28;20218;-64
2023/08/04 02:01:58;;;;;;;6.93;3.10;;;;;;;;;;5064457;28;20292;-64
2023/08/04 02:04:25;;;;;;;8.45;2.97;;;;;;;;;;5062507;28;20207;-64
2023/08/04 02:06:53;;;;;;;7.35;2.33;;;;;;;;;;5059691;28;20214;-64
2023/08/04 02:09:22;;;;;;;7.75;3.00;;;;;;;;;;5051663;28;20218;-65
2023/08/04 02:11:49;;;;;;;10.25;3.10;;;;;;;;;;5063443;28;20289;-65
2023/08/04 02:14:18;;;;;;;8.38;3.25;;;;;;;;;;5052491;28;20242;-64
2023/08/04 02:16:45;;;;;;;11.35;3.17;;;;;;;;;;5060117;28;20207;-65
2023/08/04 02:19:12;;;;;;;12.48;3.33;;;;;;;;;;5065498;28;20206;-64
2023/08/04 02:21:39;;;;;;;8.10;3.30;;;;;;;;;;5065628;28;20206;-65
2023/08/04 02:24:07;;;;;;;6.65;2.78;;;;;;;;;;5059961;28;20209;-65
2023/08/04 02:26:34;;;;;;;10.20;3.22;;;;;;;;;;5049531;28;20207;-64
2023/08/04 02:29:01;;;;;;;6.90;3.40;;;;;;;;;;5063476;28;20216;-64
2023/08/04 02:31:32;;;;;;;10.07;3.88;;;;;;;;;;5065811;28;20217;-64
2023/08/04 02:33:59;;;;;;;7.35;2.97;;;;;;;;;;5065304;28;20237;-64
2023/08/04 02:36:27;;;;;;;8.07;3.50;;;;;;;;;;5064428;28;20202;-65
2023/08/04 02:38:54;;;;;;;7.80;3.20;;;;;;;;;;5064277;28;20298;-65
2023/08/04 02:41:21;;;;;;;7.38;3.17;;;;;;;;;;5064474;28;20210;-65
2023/08/04 02:43:48;;;;;;;7.97;3.60;;;;;;;;;;5062049;28;20207;-64
2023/08/04 02:46:15;;;;;;;7.63;3.40;;;;;;;;;;5051938;28;20207;-65
2023/08/04 02:48:44;;;;;;;4.93;2.58;;;;;;;;;;5051823;28;20253;-65
2023/08/04 02:51:12;;;;;;;8.43;3.05;;;;;;;;;;5051573;28;20211;-72
2023/08/04 02:53:41;;;;;;;6.55;3.38;;;;;;;;;;5051443;28;20227;-72
2023/08/04 02:56:12;;;;;;;7.13;3.40;;;;;;;;;;5051476;28;20211;-71
2023/08/04 02:58:39;;;;;;;9.65;3.00;;;;;;;;;;5067505;28;20210;-72
2023/08/04 03:01:07;;;;;;;6.88;3.00;;;;;;;;;;5062161;28;20204;-70
2023/08/04 03:03:34;;;;;;;6.65;3.30;;;;;;;;;;5067670;28;20199;-72
2023/08/04 03:06:03;;;;;;;5.07;3.05;;;;;;;;;;5065196;28;20323;-72
2023/08/04 03:08:31;;;;;;;6.07;2.55;;;;;;;;;;5068087;28;20213;-71
2023/08/04 03:10:59;;;;;;;6.35;3.17;;;;;;;;;;5068491;28;20218;-71
2023/08/04 03:13:26;;;;;;;10.07;3.72;;;;;;;;;;5048877;28;20213;-72
2023/08/04 03:15:56;;;;;;;7.93;3.35;;;;;;;;;;5048123;28;20453;-71
2023/08/04 03:18:23;;;;;;;7.50;3.28;;;;;;;;;;5062777;28;20301;-71
2023/08/04 03:20:50;;;;;;;9.88;3.42;;;;;;;;;;5069419;28;20210;-70
2023/08/04 03:23:19;;;;;;;7.05;3.65;;;;;;;;;;5063680;28;20207;-72
2023/08/04 03:25:46;;;;;;;4.10;3.25;;;;;;;;;;5051361;28;20211;-72
2023/08/04 03:28:13;;;;;;;8.45;3.20;;;;;;;;;;5051297;28;20221;-70
2023/08/04 03:30:41;;;;;;;7.05;3.25;;;;;;;;;;5050988;28;20218;-71
2023/08/04 03:33:08;;;;;;;7.88;3.15;;;;;;;;;;5050857;28;20211;-69
2023/08/04 03:35:35;;;;;;;6.47;3.42;;;;;;;;;;5051012;28;20239;-72
2023/08/04 03:38:03;;;;;;;6.57;2.88;;;;;;;;;;5054213;28;20202;-72
2023/08/04 03:40:32;;;;;;;6.60;3.08;;;;;;;;;;5070780;28;20278;-71
2023/08/04 03:42:59;;;;;;;6.28;3.95;;;;;;;;;;5070518;28;20211;-71
2023/08/04 03:45:26;;;;;;;5.05;3.80;;;;;;;;;;5073295;28;20203;-71
2023/08/04 03:47:53;;;;;;;9.23;4.10;;;;;;;;;;5060678;28;20215;-71
2023/08/04 03:50:20;;;;;;;7.20;3.45;;;;;;;;;;5055125;28;20211;-71
2023/08/04 03:52:47;;;;;;;9.45;4.45;;;;;;;;;;5055145;28;20203;-71
2023/08/04 03:55:15;;;;;;;8.15;4.07;;;;;;;;;;5054999;28;20246;-71
2023/08/04 03:57:43;;;;;;;7.15;3.40;;;;;;;;;;5058968;28;20207;-70
2023/08/04 04:00:10;;;;;;;8.50;3.55;;;;;;;;;;5055769;28;20207;-65
2023/08/04 04:02:38;;;;;;;5.22;3.28;;;;;;;;;;5056016;28;20256;-64
2023/08/04 04:05:05;;;;;;;7.55;4.03;;;;;;;;;;5054769;28;20207;-65
2023/08/04 04:07:32;;;;;;;4.35;3.65;;;;;;;;;;5054316;28;20211;-64
2023/08/04 04:09:59;;;;;;;6.47;3.70;;;;;;;;;;5056288;28;20217;-64
2023/08/04 04:12:26;;;;;;;5.65;3.67;;;;;;;;;;5053943;28;20211;-65
2023/08/04 04:14:55;;;;;;;7.38;3.80;;;;;;;;;;5052468;28;20223;-64
2023/08/04 04:17:23;;;;;;;4.88;3.40;;;;;;;;;;5056441;28;20214;-64
2023/08/04 04:19:50;;;;;;;6.00;3.88;;;;;;;;;;5054114;28;20294;-64
2023/08/04 04:22:18;;;;;;;3.30;3.00;;;;;;;;;;5053361;28;20203;-65
2023/08/04 04:24:45;;;;;;;6.28;3.40;;;;;;;;;;5053869;28;20214;-65
2023/08/04 04:27:12;;;;;;;6.53;3.70;;;;;;;;;;5056314;28;20515;-65
2023/08/04 04:29:39;;;;;;;8.70;3.85;;;;;;;;;;5057732;28;20207;-65
2023/08/04 04:32:08;;;;;;;6.43;3.40;;;;;;;;;;5057503;28;20221;-65
2023/08/04 04:34:36;;;;;;;5.88;3.53;;;;;;;;;;5054767;28;20227;-65
2023/08/04 04:37:03;;;;;;;6.20;3.63;;;;;;;;;;5056930;28;20249;-65
2023/08/04 04:39:30;;;;;;;7.03;4.05;;;;;;;;;;5054265;28;20229;-65
2023/08/04 04:41:57;;;;;;;7.78;4.07;;;;;;;;;;5053898;28;20262;-65
2023/08/04 04:44:24;;;;;;;5.95;3.75;;;;;;;;;;5054108;28;20214;-65
2023/08/04 04:46:52;;;;;;;6.75;3.88;;;;;;;;;;5054442;28;20210;-65
2023/08/04 04:49:20;;;;;;;7.57;3.80;;;;;;;;;;5053650;28;20305;-65
2023/08/04 04:51:47;;;;;;;5.93;3.15;;;;;;;;;;5054007;28;20211;-65
2023/08/04 04:54:14;;;;;;;5.32;3.30;;;;;;;;;;5053213;28;20231;-65
2023/08/04 04:56:42;;;;;;;7.03;4.18;;;;;;;;;;5057006;28;20208;-64
2023/08/04 04:59:09;;;;;;;7.15;3.78;;;;;;;;;;5059348;28;20221;-65
2023/08/04 05:01:36;;;;;;;5.88;3.47;;;;;;;;;;5057504;28;20200;-65
2023/08/04 05:04:03;;;;;;;7.30;3.38;;;;;;;;;;5057916;28;20310;-65
2023/08/04 05:06:32;;;;;;;11.07;3.90;;;;;;;;;;5053893;28;20215;-65
2023/08/04 05:08:59;;;;;;;5.20;3.08;;;;;;;;;;5053266;28;20204;-65
2023/08/04 05:11:26;;;;;;;8.73;3.50;;;;;;;;;;5054018;28;20211;-71
2023/08/04 05:13:53;;;;;;;7.00;3.35;;;;;;;;;;5056861;28;20207;-71
2023/08/04 05:16:20;;;;;;;5.03;2.78;;;;;;;;;;5060267;28;20207;-70
2023/08/04 05:18:47;;;;;;;7.28;3.28;;;;;;;;;;5060116;28;20207;-70
2023/08/04 05:21:15;;;;;;;8.85;3.10;;;;;;;;;;5060400;28;20199;-71
2023/08/04 05:23:43;;;;;;;9.15;3.60;;;;;;;;;;5056516;28;20212;-71
2023/08/04 05:26:10;;;;;;;8.30;3.13;;;;;;;;;;5059449;28;20209;-72
2023/08/04 05:28:37;;;;;;;6.30;3.30;;;;;;;;;;5062866;28;20206;-71
2023/08/04 05:31:08;;;;;;;6.95;3.50;;;;;;;;;;5052605;28;20310;-71
2023/08/04 05:33:35;;;;;;;5.55;2.92;;;;;;;;;;5051156;28;20306;-72
2023/08/04 05:36:03;;;;;;;7.45;3.30;;;;;;;;;;5051373;28;20238;-72
2023/08/04 05:38:31;;;;;;;6.50;3.25;;;;;;;;;;5056009;28;20203;-72
2023/08/04 05:41:00;;;;;;;6.50;3.20;;;;;;;;;;5052873;28;20249;-71
2023/08/04 05:43:28;;;;;;;4.93;2.70;;;;;;;;;;5060829;28;20211;-71
2023/08/04 05:45:55;;;;;;;7.75;3.15;;;;;;;;;;5061875;28;20207;-71
2023/08/04 05:48:22;;;;;;;8.35;3.67;;;;;;;;;;5051719;28;20302;-72
2023/08/04 05:50:49;;;;;;;7.97;3.03;;;;;;;;;;5052820;28;20239;-72
2023/08/04 05:53:16;;;;;;;4.82;3.40;;;;;;;;;;5056143;28;20215;-72
2023/08/04 05:55:43;;;;;;;7.30;3.80;;;;;;;;;;5061822;28;20231;-72
2023/08/04 05:58:12;;;;;;;4.25;3.20;;;;;;;;;;5052625;28;20212;-72
2023/08/04 06:00:39;;;;;;;7.90;3.60;;;;;;;;;;5062433;28;20210;-70
2023/08/04 06:03:06;;;;;;;6.30;3.55;;;;;;;;;;5061107;28;20203;-72
2023/08/04 06:05:34;;;;;;;6.15;3.30;;;;;;;;;;5052625;28;20212;-71
2023/08/04 06:08:01;;;;;;;4.35;3.05;;;;;;;;;;5052860;28;20225;-72
2023/08/04 06:10:28;;;;;;;11.07;4.05;;;;;;;;;;5061536;28;20215;-71
2023/08/04 06:12:55;;;;;;;6.25;3.30;;;;;;;;;;5062145;28;20226;-72
2023/08/04 06:15:24;;;;;;;6.65;3.40;;;;;;;;;;5053850;28;20253;-70
2023/08/04 06:17:51;;;;;;;5.35;2.60;;;;;;;;;;5062237;28;20222;-72
2023/08/04 06:20:18;;;;;;;5.93;3.85;;;;;;;;;;5061048;28;20207;-72
2023/08/04 06:22:47;;;;;;;8.82;3.67;;;;;;;;;;5052325;28;20211;-66
2023/08/04 06:25:15;;;;;;;4.75;3.38;;;;;;;;;;5052283;28;20207;-65
2023/08/04 06:27:42;;;;;;;7.40;3.65;;;;;;;;;;5052179;28;20203;-66
2023/08/04 06:30:10;;;;;;;5.97;3.25;;;;;;;;;;5059566;28;20293;-65
2023/08/04 06:32:38;;;;;;;4.10;2.88;;;;;;;;;;5064554;28;20203;-65
2023/08/04 06:35:06;;;;;;;4.28;2.95;;;;;;;;;;5049423;28;20332;-65
2023/08/04 06:37:33;;;;;;;6.07;3.42;;;;;;;;;;5049661;28;20199;-65
2023/08/04 06:40:00;;;;;;;7.35;3.47;;;;;;;;;;5054809;28;20211;-65
2023/08/04 06:42:27;;;;;;;7.15;3.92;;;;;;;;;;5051756;28;20271;-65
2023/08/04 06:44:55;;;;;;;6.82;3.70;;;;;;;;;;5051666;28;20199;-65
2023/08/04 06:47:22;;;;;;;6.85;3.55;;;;;;;;;;5051637;28;20242;-65
2023/08/04 06:49:51;;;;;;;6.95;4.15;;;;;;;;;;5051812;28;20226;-66
2023/08/04 06:52:18;;;;;;;5.85;3.88;;;;;;;;;;5064095;28;20214;-65
2023/08/04 06:54:45;;;;;;;6.72;4.32;;;;;;;;;;5061319;28;20261;-65
2023/08/04 06:57:12;;;;;;;5.05;3.92;;;;;;;;;;5051381;28;20211;-66
2023/08/04 06:59:39;;;;;;;6.65;4.00;;;;;;;;;;5051304;28;20211;-65
2023/08/04 07:02:07;;;;;;;9.45;4.63;;;;;;;;;;5059780;28;20203;-65
2023/08/04 07:04:34;;;;;;;7.40;4.65;;;;;;;;;;5066587;28;20217;-65
2023/08/04 07:07:03;;;;;;;6.65;4.60;;;;;;;;;;5067120;28;20210;-65
2023/08/04 07:09:30;;;;;;;8.25;4.95;;;;;;;;;;5062830;28;20206;-65
2023/08/04 07:11:57;;;;;;;7.45;4.72;;;;;;;;;;5059386;28;20221;-65
2023/08/04 07:14:24;;;;;;;8.63;5.07;;;;;;;;;;5067518;28;20210;-65
2023/08/04 07:16:51;;;;;;;7.85;4.75;;;;;;;;;;5066916;28;20231;-65
2023/08/04 07:19:18;;;;;;;6.53;4.68;;;;;;;;;;5067186;28;20207;-65
2023/08/04 07:21:46;;;;;;;8.10;4.80;;;;;;;;;;5067449;28;20231;-65
2023/08/04 07:24:14;;;;;;;6.38;4.43;;;;;;;;;;5068450;28;20199;-65
2023/08/04 07:26:41;;;;;;;7.25;4.50;;;;;;;;;;5056168;28;20200;-65
2023/08/04 07:29:09;;;;;;;7.63;5.38;;;;;;;;;;5055807;28;20302;-65
2023/08/04 07:31:36;;;;;;;7.07;4.65;;;;;;;;;;5062986;28;20241;-72
2023/08/04 07:34:03;;;;;;;6.50;4.80;;;;;;;;;;5060960;28;20211;-72
2023/08/04 07:36:30;;;;;;;9.90;5.03;;;;;;;;;;5066317;28;20223;-71
2023/08/04 07:38:57;;;;;;;8.23;4.97;;;;;;;;;;5054938;28;20222;-72
2023/08/04 07:41:26;;;;;;;10.50;5.20;;;;;;;;;;5051480;28;20213;-72
2023/08/04 07:43:53;;;;;;;9.50;5.07;;;;;;;;;;5051029;28;20204;-71
2023/08/04 07:46:21;;;;;;;8.15;4.88;;;;;;;;;;5055613;28;20203;-71
2023/08/04 07:48:50;;;;;;;8.30;4.93;;;;;;;;;;5069604;28;20212;-70
2023/08/04 07:51:17;;;;;;;6.43;4.60;;;;;;;;;;5047077;28;20221;-71
2023/08/04 07:53:44;;;;;;;9.05;4.80;;;;;;;;;;5047296;28;20207;-70
2023/08/04 07:56:12;;;;;;;9.13;5.10;;;;;;;;;;5051261;28;20227;-71
2023/08/04 07:58:40;;;;;;;10.57;4.90;;;;;;;;;;5050828;28;20216;-72
2023/08/04 08:01:07;;;;;;;8.43;5.28;;;;;;;;;;5050779;28;20226;-72
2023/08/04 08:03:35;;;;;;;7.97;4.72;;;;;;;;;;5056062;28;20202;-70
2023/08/04 08:06:02;;;;;;;7.07;5.25;;;;;;;;;;5067780;28;20200;-72
2023/08/04 08:08:30;;;;;;;7.85;5.28;;;;;;;;;;5062261;28;20211;-71
2023/08/04 08:10:58;;;;;;;6.68;5.40;;;;;;;;;;5050956;28;20211;-71
2023/08/04 08:13:25;;;;;;;5.45;4.63;;;;;;;;;;5050550;28;20208;-71
2023/08/04 08:15:53;;;;;;;9.32;4.65;;;;;;;;;;5050815;28;20227;-71
2023/08/04 08:18:21;;;;;;;8.82;4.93;;;;;;;;;;5051383;28;20195;-71
2023/08/04 08:20:48;;;;;;;8.18;4.60;;;;;;;;;;5050670;28;20211;-71
2023/08/04 08:23:15;;;;;;;9.18;5.00;;;;;;;;;;5051746;28;20261;-71
2023/08/04 08:25:42;;;;;;;6.32;4.97;;;;;;;;;;5051883;28;20199;-71
2023/08/04 08:28:10;;;;;;;7.70;4.75;;;;;;;;;;5052021;28;20284;-71
2023/08/04 08:30:37;;;;;;;7.93;4.72;;;;;;;;;;5050969;28;20211;-71
2023/08/04 08:33:06;;;;;;;7.10;4.82;;;;;;;;;;5055188;28;20199;-71
2023/08/04 08:35:33;;;;;;;6.93;4.72;;;;;;;;;;5056397;28;20266;-71
2023/08/04 08:38:00;;;;;;;5.63;5.03;;;;;;;;;;5055384;28;20231;-71
2023/08/04 08:40:27;;;;;;;5.47;4.85;;;;;;;;;;5056057;28;20219;-71
2023/08/04 08:42:56;;;;;;;7.30;4.75;;;;;;;;;;5053788;28;20215;-72
2023/08/04 08:45:27;;;;;;;8.45;5.25;;;;;;;;;;5054033;28;20291;-71
2023/08/04 08:47:55;;;;;;;5.53;4.65;;;;;;;;;;5054306;28;20219;-71
2023/08/04 08:50:24;;;;;;;5.70;5.20;;;;;;;;;;5053537;28;20207;-70
2023/08/04 08:52:52;;;;;;;8.13;4.47;;;;;;;;;;5053681;28;20203;-71
2023/08/04 08:55:20;;;;;;;5.25;4.70;;;;;;;;;;5051522;28;20247;-71
2023/08/04 08:57:47;;;;;;;6.15;4.80;;;;;;;;;;5054118;28;20293;-71
2023/08/04 09:00:15;;;;;;;6.47;4.75;;;;;;;;;;5054583;28;20218;-72
2023/08/04 09:02:42;;;;;;;6.25;4.32;;;;;;;;;;5055380;28;20271;-71
2023/08/04 09:05:10;;;;;;;4.32;3.88;;;;;;;;;;5057858;28;20222;-71
2023/08/04 09:07:39;;;;;;;4.30;3.90;;;;;;;;;;5055299;28;20215;-71
2023/08/04 09:10:08;;;;;;;6.28;4.43;;;;;;;;;;5056782;28;20207;-70
2023/08/04 09:12:36;;;;;;;4.65;4.20;;;;;;;;;;5053113;28;20214;-71
2023/08/04 09:15:04;;;;;;;4.85;4.10;;;;;;;;;;5053885;28;20211;-71
2023/08/04 09:17:31;;;;;;;5.25;4.75;;;;;;;;;;5058887;28;20231;-71
2023/08/04 09:19:59;;;;;;;4.60;4.10;;;;;;;;;;5059044;28;20211;-70
2023/08/04 09:22:26;;;;;;;5.30;4.60;;;;;;;;;;5058612;28;20212;-71
2023/08/04 09:24:55;;;;;;;5.72;5.07;;;;;;;;;;5057884;28;20211;-70
2023/08/04 09:27:29;;;;;;;5.93;4.50;;;;;;;;;;5050329;28;20211;-70
2023/08/04 09:29:59;;;;;;;5.28;4.10;;;;;;;;;;5052814;28;20214;-72
2023/08/04 09:32:27;;;;;;;4.35;3.95;;;;;;;;;;5055336;28;20211;-72
2023/08/04 09:35:01;;;;;;;4.30;3.90;;;;;;;;;;5058142;28;20217;-71
2023/08/04 09:37:28;;;;;;;4.82;3.95;;;;;;;;;;5057950;28;20231;-73
2023/08/04 09:39:57;;;;;;;5.00;3.90;;;;;;;;;;5057321;28;20214;-72
2023/08/04 09:42:24;;;;;;;4.15;3.72;;;;;;;;;;5060295;28;20207;-71
2023/08/04 09:44:52;;;;;;;5.00;3.90;;;;;;;;;;5058776;28;20298;-71
2023/08/04 09:47:22;;;;;;;4.82;4.13;;;;;;;;;;5060300;28;20211;-71
2023/08/04 09:49:49;;;;;;;4.95;4.03;;;;;;;;;;5057649;28;20673;-70
2023/08/04 09:52:23;;;;;;;4.50;4.10;;;;;;;;;;5052493;28;20209;-69
2023/08/04 09:54:52;;;;;;;5.45;3.75;;;;;;;;;;5051049;28;20277;-70
2023/08/04 09:57:21;;;;;;;6.07;3.60;;;;;;;;;;5052684;28;20223;-72
2023/08/04 09:59:49;;;;;;;6.03;3.90;;;;;;;;;;5052562;28;20238;-72
2023/08/04 10:02:18;;;;;;;3.63;3.33;;;;;;;;;;5051762;28;20218;-71
2023/08/04 10:04:48;;;;;;;4.05;3.45;;;;;;;;;;5052127;28;20275;-72
2023/08/04 10:07:16;;;;;;;7.45;3.88;;;;;;;;;;5059462;28;20212;-71
2023/08/04 10:09:43;;;;;;;4.00;3.58;;;;;;;;;;5052063;28;20211;-70
2023/08/04 10:12:11;;;;;;;3.72;3.40;;;;;;;;;;5056201;28;20211;-69
2023/08/04 10:14:39;;;;;;;4.75;3.38;;;;;;;;;;5059549;28;20211;-70
2023/08/04 10:17:07;;;;;;;5.13;3.03;;;;;;;;;;5061863;28;20227;-72
2023/08/04 10:19:34;;;;;;;4.85;2.83;;;;;;;;;;5055121;28;20254;-72
2023/08/04 10:22:06;;;;;;;5.50;3.00;;;;;;;;;;5056391;28;20207;-72
2023/08/04 10:24:36;;;;;;;3.80;3.03;;;;;;;;;;5062581;28;20209;-72
2023/08/04 10:27:12;;;;;;;3.83;2.80;;;;;;;;;;5050026;28;20261;-72
2023/08/04 10:29:41;;;;;;;3.95;3.30;;;;;;;;;;5051323;28;20214;-70
2023/08/04 10:32:09;;;;;;;3.78;2.85;;;;;;;;;;5051812;28;20211;-71
2023/08/04 10:34:35;;;;;;;4.18;3.00;;;;;;;;;;5052063;28;20208;-71
2023/08/04 10:37:05;;;;;;;4.88;3.30;;;;;;;;;;5057968;28;20235;-72
2023/08/04 10:39:33;;;;;;;4.00;3.08;;;;;;;;;;5060877;28;20207;-71
2023/08/04 10:42:00;;;;;;;3.20;2.88;;;;;;;;;;5059820;28;20214;-71
2023/08/04 10:44:31;;;;;;;2.78;2.53;;;;;;;;;;5057328;28;20215;-72
2023/08/04 10:47:05;;;;;;;5.15;3.13;;;;;;;;;;5051738;28;20203;-72
2023/08/04 10:49:32;;;;;;;2.30;2.10;;;;;;;;;;5052140;28;20214;-71
2023/08/04 10:52:00;;;;;;;3.50;2.20;;;;;;;;;;5051688;28;20272;-73
2023/08/04 10:54:27;;;;;;;2.72;2.28;;;;;;;;;;5049406;28;20289;-71
2023/08/04 10:56:55;;;;;;;3.80;2.40;;;;;;;;;;5051116;28;20231;-72
2023/08/04 10:59:22;;;;;;;5.18;2.65;;;;;;;;;;5051530;28;20216;-72
2023/08/04 11:01:49;;;;;;;3.05;2.40;;;;;;;;;;5051344;28;20208;-72
2023/08/04 11:04:18;;;;;;;3.90;2.58;;;;;;;;;;5051648;28;20207;-70
2023/08/04 11:06:45;;;;;;;2.92;2.20;;;;;;;;;;5051503;28;20200;-72
2023/08/04 11:09:12;;;;;;;4.75;2.50;;;;;;;;;;5056059;28;20211;-71
2023/08/04 11:11:40;;;;;;;3.22;2.40;;;;;;;;;;5049031;28;20208;-71
2023/08/04 11:14:08;;;;;;;2.42;2.22;;;;;;;;;;5051476;28;20222;-71
2023/08/04 11:16:36;;;;;;;2.83;2.50;;;;;;;;;;5062071;28;20257;-72
2023/08/04 11:19:09;;;;;;;4.53;2.42;;;;;;;;;;5065790;28;20203;-72
2023/08/04 11:21:37;;;;;;;3.20;2.47;;;;;;;;;;5064675;28;20218;-72
2023/08/04 11:24:05;;;;;;;2.40;2.20;;;;;;;;;;5063739;28;20210;-72
2023/08/04 11:26:32;;;;;;;2.33;2.20;;;;;;;;;;5063724;28;20250;-72
2023/08/04 11:29:00;;;;;;;4.95;2.30;;;;;;;;;;5051279;28;20207;-71
2023/08/04 11:31:27;;;;;;;4.13;2.33;;;;;;;;;;5057581;28;20207;-71
2023/08/04 11:33:54;;;;;;;2.30;2.05;;;;;;;;;;5055310;28;20592;-71
2023/08/04 11:36:21;;;;;;;2.97;2.20;;;;;;;;;;5050790;28;20253;-71
2023/08/04 11:38:50;;;;;;;3.88;2.00;;;;;;;;;;5051551;28;20203;-72
2023/08/04 11:41:17;;;;;;;2.60;2.30;;;;;;;;;;5050953;28;20218;-71
2023/08/04 11:43:45;;;;;;;2.47;2.20;;;;;;;;;;5054246;28;20211;-72
2023/08/04 11:46:13;;;;;;;2.08;1.90;;;;;;;;;;5067528;28;20216;-71
2023/08/04 11:48:40;;;;;;;2.00;1.85;;;;;;;;;;5050925;28;20207;-72
2023/08/04 11:51:08;;;;;;;2.53;1.80;;;;;;;;;;5050466;28;20207;-70
2023/08/04 11:53:36;;;;;;;3.50;2.22;;;;;;;;;;5050969;28;20210;-72
2023/08/04 11:56:07;;;;;;;2.65;2.03;;;;;;;;;;5051182;28;20247;-72
2023/08/04 11:58:35;;;;;;;2.97;2.10;;;;;;;;;;5051176;28;20199;-71
2023/08/04 12:01:02;;;;;;;4.53;2.00;;;;;;;;;;5054733;28;20206;-71
2023/08/04 12:03:46;;;;;;;2.88;2.10;;;;;;;;;;5068622;28;20210;-72
2023/08/04 12:06:14;;;;;;;2.88;2.03;;;;;;;;;;5071423;28;20301;-71
2023/08/04 12:08:47;;;;;;;2.30;2.10;;;;;;;;;;5073180;28;20274;-72
2023/08/04 12:11:16;;;;;;;3.10;2.17;;;;;;;;;;5054046;28;20218;-72
2023/08/04 12:13:43;;;;;;;3.83;2.45;;;;;;;;;;5052595;28;20211;-71
2023/08/04 12:16:10;;;;;;;3.90;2.40;;;;;;;;;;5054523;28;20238;-72
2023/08/04 12:18:39;;;;;;;5.97;2.40;;;;;;;;;;5061457;28;20206;-72
2023/08/04 12:21:06;;;;;;;4.65;2.63;;;;;;;;;;5071435;28;20223;-72
2023/08/04 12:23:33;;;;;;;3.65;2.35;;;;;;;;;;5074366;28;20207;-72
2023/08/04 12:26:00;;;;;;;4.07;2.50;;;;;;;;;;5073962;28;20245;-72
2023/08/04 12:28:29;;;;;;;4.07;2.70;;;;;;;;;;5071430;28;20203;-72
2023/08/04 12:30:56;;;;;;;2.70;2.47;;;;;;;;;;5054510;28;20230;-71
2023/08/04 12:33:23;;;;;;;5.40;2.80;;;;;;;;;;5054522;28;20219;-72
2023/08/04 12:35:50;;;;;;;3.22;2.60;;;;;;;;;;5049164;28;20211;-71
2023/08/04 12:38:17;;;;;;;3.33;2.90;;;;;;;;;;5054306;28;20231;-72
2023/08/04 12:40:45;;;;;;;5.82;3.00;;;;;;;;;;5052943;28;20212;-72
2023/08/04 12:43:12;;;;;;;5.47;3.08;;;;;;;;;;5054169;28;20242;-72
2023/08/04 12:45:40;;;;;;;3.35;2.20;;;;;;;;;;5054507;28;20517;-72
2023/08/04 12:48:07;;;;;;;2.80;2.50;;;;;;;;;;5053999;28;20208;-71
2023/08/04 12:50:35;;;;;;;3.60;2.20;;;;;;;;;;5054068;28;20211;-72
2023/08/04 12:53:02;;;;;;;2.38;2.17;;;;;;;;;;5053009;28;20314;-72
2023/08/04 12:55:29;;;;;;;2.20;2.00;;;;;;;;;;5055363;28;20263;-72
2023/08/04 12:57:56;;;;;;;2.13;1.70;;;;;;;;;;5053792;28;20231;-72
2023/08/04 13:00:24;;;;;;;5.03;2.20;;;;;;;;;;5053844;28;20207;-73
2023/08/04 13:02:52;;;;;;;2.53;2.00;;;;;;;;;;5053680;28;20204;-73
2023/08/04 13:05:19;;;;;;;3.92;2.42;;;;;;;;;;5052935;28;20218;-72
2023/08/04 13:07:47;;;;;;;2.90;2.70;;;;;;;;;;5053524;28;20202;-73
2023/08/04 13:10:15;;;;;;;2.63;2.42;;;;;;;;;;5050667;28;20261;-72
2023/08/04 13:12:42;;;;;;;3.95;2.72;;;;;;;;;;5053757;28;20199;-71
2023/08/04 13:15:10;;;;;;;2.47;2.28;;;;;;;;;;5057101;28;20211;-72
2023/08/04 13:17:37;;;;;;;2.97;2.28;;;;;;;;;;5056548;28;20219;-72
2023/08/04 13:20:08;;;;;;;3.20;2.00;;;;;;;;;;5057271;28;20214;-71
2023/08/04 13:22:35;;;;;;;2.88;2.30;;;;;;;;;;5055180;28;20242;-66
2023/08/04 13:25:03;;;;;;;3.58;2.30;;;;;;;;;;5058533;28;20249;-66
2023/08/04 13:27:30;;;;;;;4.97;2.10;;;;;;;;;;5053160;28;20225;-66
2023/08/04 13:29:57;;;;;;;2.58;1.90;;;;;;;;;;5054353;28;20218;-65
2023/08/04 13:32:24;;;;;;;2.92;2.17;;;;;;;;;;5057992;28;20276;-65
2023/08/04 13:34:51;;;;;;;2.05;1.95;;;;;;;;;;5060409;28;20217;-65
2023/08/04 13:37:20;;;;;;;3.42;2.10;;;;;;;;;;5052437;28;20230;-66
2023/08/04 13:39:47;;;;;;;2.22;1.85;;;;;;;;;;5053053;28;20241;-65
2023/08/04 13:42:14;;;;;;;2.78;2.20;;;;;;;;;;5055146;28;20207;-66
2023/08/04 13:44:41;;;;;;;3.13;2.08;;;;;;;;;;5052875;28;20203;-65
2023/08/04 13:47:09;;;;;;;3.38;2.05;;;;;;;;;;5052777;28;20207;-66
2023/08/04 13:49:36;;;;;;;3.63;2.00;;;;;;;;;;5053030;28;20207;-65
2023/08/04 13:52:03;;;;;;;2.70;2.00;;;;;;;;;;5052320;28;20217;-65
2023/08/04 13:54:32;;;;;;;2.47;2.00;;;;;;;;;;5052816;28;20243;-65
2023/08/04 13:56:59;;;;;;;3.25;1.95;;;;;;;;;;5052771;28;20213;-65
2023/08/04 13:59:26;;;;;;;4.45;2.05;;;;;;;;;;5052100;28;20218;-66
2023/08/04 14:01:53;;;;;;;3.38;2.13;;;;;;;;;;5052452;28;20211;-66
2023/08/04 14:04:20;;;;;;;2.28;1.90;;;;;;;;;;5058113;28;20213;-65
2023/08/04 14:06:50;;;;;;;2.10;1.90;;;;;;;;;;5055655;28;20217;-65
2023/08/04 14:09:17;;;;;;;2.30;2.10;;;;;;;;;;5059124;28;20218;-65
2023/08/04 14:11:45;;;;;;;2.25;1.90;;;;;;;;;;5060191;28;20209;-66
2023/08/04 14:14:12;;;;;;;1.85;1.75;;;;;;;;;;5054009;28;20207;-65
2023/08/04 14:16:40;;;;;;;2.35;2.08;;;;;;;;;;5052893;28;20298;-65
2023/08/04 14:19:07;;;;;;;2.35;1.70;;;;;;;;;;5056136;28;20230;-65
2023/08/04 14:21:34;;;;;;;2.50;2.17;;;;;;;;;;5052283;28;20314;-65
2023/08/04 14:24:01;;;;;;;2.70;1.80;;;;;;;;;;5052597;28;20215;-65
2023/08/04 14:26:28;;;;;;;2.08;1.83;;;;;;;;;;5053992;28;20211;-65
2023/08/04 14:28:57;;;;;;;2.75;2.13;;;;;;;;;;5060183;28;20200;-66
2023/08/04 14:31:24;;;;;;;2.47;1.85;;;;;;;;;;5053477;28;20210;-66
2023/08/04 14:33:51;;;;;;;3.45;2.10;;;;;;;;;;5057446;28;20207;-65
2023/08/04 14:36:18;;;;;;;2.70;1.98;;;;;;;;;;5052198;28;20207;-65
2023/08/04 14:38:45;;;;;;;2.33;1.95;;;;;;;;;;5059986;28;20233;-66
2023/08/04 14:41:13;;;;;;;4.07;1.90;;;;;;;;;;5057984;28;20213;-65
2023/08/04 14:43:41;;;;;;;2.63;2.20;;;;;;;;;;5052004;28;20211;-64
2023/08/04 14:46:12;;;;;;;2.92;2.25;;;;;;;;;;5060715;28;20207;-65